Главная страница
METAR-TAF:

METAR-TAF

Аэропорты :

Халли

Ямся, Финляндия

широта: 61-51N, долгота: 024-48E, высота над уровнем моря: 143 м

Текущие метеонаблюдения

Эта сводка был подготовлена 31 минут назад, в 18:50 UTC
Ветер 4 Узел от южный
Температура 13°C
Влажность 77%
Давление 1012 hPa
Видимость 10 км и более
Нет облачности ниже 1500 м, и нет кучево-дождевой облачности

METAR: EFHA 131850Z AUTO 17004KT CAVOK 13/09 Q1012

Время: 22:21 (19:21 UTC)

Прогноз

Эта сводка был подготовлена 7 часа и 53 минут назад, в 11:28 UTC
Прогноз действительный с 13-го 12 UTC до 13-го 15 UTC
Ветер 7 Узел от западный-юго-западный
Видимость 10 км и более
Отдельные облака на высоте 4000 фута
временами
С 13-го 12 UTC до 13-го 15 UTC
небольшая облачность на высоте 3500 фута, Кучево-дождевые.
ливневые дожди
Вероятность 30% :
временами
С 13-го 12 UTC до 13-го 15 UTC
Видимость: 6000 м
гроза, сильный дождь,

TAF: EFHA 131128Z 1312/1315 24007KT 9999 SCT040 TEMPO 1312/1315 SHRA FEW035CB PROB30 TEMPO 1312/1315 6000 +TSRA

Метеонаблюдения и прогнозы для более 4000 аэропортов (сводки METAR и TAF).

Имеющиеся станции представлены на карте желтыми и красными точками.

Чтобы увидеть название станции, наведите на нее мышь.

Затем щелкните, чтобы увидеть метеонаблюдения и метеопрогнозы.

Управление картой: чтобы увеличить масштаб, щелкните зеленые кнопки с черным крестиком; чтобы уменьшить масштаб, щелкните зеленую кнопку с тире; для просмотра соседних карт щелкайте зеленые стрелки.


METAR-TAF: